createdAt,value
2023-04-19T00:01:11.109Z,12.57
2023-04-19T00:03:37.759Z,12.98
2023-04-19T00:06:04.591Z,12.90
2023-04-19T00:08:30.919Z,12.20
2023-04-19T00:10:57.301Z,12.15
2023-04-19T00:13:23.631Z,11.73
2023-04-19T00:15:50.187Z,12.90
2023-04-19T00:18:16.698Z,12.20
2023-04-19T00:20:43.155Z,12.20
2023-04-19T00:23:09.545Z,11.05
2023-04-19T00:25:36.059Z,11.07
2023-04-19T00:28:02.468Z,11.23
2023-04-19T00:30:29.129Z,10.15
2023-04-19T00:32:55.897Z,10.85
2023-04-19T00:35:22.357Z,10.63
2023-04-19T00:37:48.944Z,10.05
2023-04-19T00:40:15.386Z,10.55
2023-04-19T00:42:42.227Z,10.07
2023-04-19T00:45:09.156Z,10.48
2023-04-19T00:47:36.094Z,10.13
2023-04-19T00:50:04.775Z,10.57
2023-04-19T00:52:33.176Z,9.57
2023-04-19T00:55:00.178Z,9.13
2023-04-19T00:57:27.083Z,9.07
2023-04-19T00:59:55.045Z,9.18
2023-04-19T01:02:24.671Z,8.43
2023-04-19T01:04:51.804Z,9.38
2023-04-19T01:07:19.420Z,9.35
2023-04-19T01:09:46.630Z,9.37
2023-04-19T01:12:12.967Z,8.80
2023-04-19T01:14:42.271Z,8.30
2023-04-19T01:17:09.247Z,8.65
2023-04-19T01:19:36.860Z,8.40
2023-04-19T01:22:04.338Z,7.72
2023-04-19T01:24:31.445Z,8.05
2023-04-19T01:26:58.858Z,7.93
2023-04-19T01:29:25.741Z,7.75
2023-04-19T01:31:54.098Z,7.10
2023-04-19T01:34:21.058Z,7.07
2023-04-19T01:36:47.417Z,7.68
2023-04-19T01:39:13.838Z,6.95
2023-04-19T01:41:40.377Z,7.07
2023-04-19T01:44:06.737Z,6.43
2023-04-19T01:46:33.302Z,6.60
2023-04-19T01:48:59.710Z,6.40
2023-04-19T01:51:26.126Z,6.82
2023-04-19T01:53:54.715Z,6.22
2023-04-19T01:56:24.721Z,6.10
2023-04-19T01:58:51.215Z,5.80
2023-04-19T02:01:17.639Z,6.22
2023-04-19T02:03:44.685Z,6.03
2023-04-19T02:06:12.756Z,6.32
2023-04-19T02:08:42.971Z,6.07
2023-04-19T02:11:10.397Z,5.68
2023-04-19T02:13:38.031Z,6.20
2023-04-19T02:16:06.210Z,5.63
2023-04-19T02:18:38.557Z,5.70
2023-04-19T02:21:06.221Z,5.20
2023-04-19T02:23:32.992Z,6.20
2023-04-19T02:25:59.404Z,6.10
2023-04-19T02:28:25.973Z,5.63
2023-04-19T02:30:52.328Z,5.32
2023-04-19T02:33:18.845Z,5.70
2023-04-19T02:35:45.576Z,5.70
2023-04-19T02:38:11.928Z,5.50
2023-04-19T02:40:38.277Z,6.00
2023-04-19T02:43:05.035Z,5.43
2023-04-19T02:45:31.571Z,5.65
2023-04-19T02:47:59.389Z,5.72
2023-04-19T02:50:27.088Z,5.20
2023-04-19T02:52:53.514Z,5.83
2023-04-19T02:55:20.186Z,5.55
2023-04-19T02:57:46.795Z,5.20
2023-04-19T03:00:14.135Z,5.25
2023-04-19T03:02:41.708Z,5.32
2023-04-19T03:05:09.023Z,5.40
2023-04-19T03:07:35.827Z,5.68
2023-04-19T03:10:03.134Z,4.88
2023-04-19T03:12:29.506Z,5.63
2023-04-19T03:14:55.976Z,5.00
2023-04-19T03:17:22.616Z,5.50
2023-04-19T03:19:49.322Z,5.70
2023-04-19T03:22:16.418Z,6.00
2023-04-19T03:24:42.815Z,5.25
2023-04-19T03:27:09.259Z,5.57
2023-04-19T03:29:35.840Z,5.95
2023-04-19T03:32:02.448Z,5.88
2023-04-19T03:34:29.092Z,5.60
2023-04-19T03:36:56.103Z,5.88
2023-04-19T03:39:22.750Z,6.30
2023-04-19T03:41:49.139Z,5.63
2023-04-19T03:44:15.691Z,5.95
2023-04-19T03:46:42.514Z,5.50
2023-04-19T03:49:09.158Z,5.90
2023-04-19T03:51:35.504Z,6.15
2023-04-19T03:54:01.982Z,5.82
2023-04-19T03:56:29.559Z,6.13
2023-04-19T03:58:56.157Z,7.05
2023-04-19T04:01:24.397Z,6.45
2023-04-19T04:03:51.258Z,6.43
2023-04-19T04:06:18.097Z,6.97
2023-04-19T04:08:44.729Z,6.20
2023-04-19T04:11:11.587Z,6.75
2023-04-19T04:13:38.234Z,6.53
2023-04-19T04:16:05.140Z,7.40
2023-04-19T04:18:31.956Z,6.93
2023-04-19T04:20:58.507Z,7.28
2023-04-19T04:23:25.660Z,6.68
2023-04-19T04:26:01.073Z,7.00
2023-04-19T04:28:28.183Z,7.38
2023-04-19T04:30:57.319Z,7.60
2023-04-19T04:33:30.178Z,7.10
2023-04-19T04:35:57.812Z,7.63
2023-04-19T04:38:25.204Z,7.93
2023-04-19T04:40:55.903Z,6.68
2023-04-19T04:43:25.672Z,7.57
2023-04-19T04:45:52.394Z,7.70
2023-04-19T04:48:18.813Z,7.53
2023-04-19T04:50:45.358Z,7.28
2023-04-19T04:53:14.774Z,7.75
2023-04-19T04:55:41.303Z,7.18
2023-04-19T04:58:07.728Z,7.97
2023-04-19T05:00:34.411Z,7.55
2023-04-19T05:03:02.746Z,6.90
2023-04-19T05:07:56.413Z,7.78
2023-04-19T05:10:22.875Z,7.03
2023-04-19T05:12:49.343Z,7.25
2023-04-19T05:15:16.998Z,6.70
2023-04-19T05:17:43.639Z,7.07
2023-04-19T05:20:10.617Z,6.50
2023-04-19T05:22:37.446Z,6.97
2023-04-19T05:25:04.617Z,6.72
2023-04-19T05:27:31.217Z,6.25
2023-04-19T05:29:57.558Z,6.50
2023-04-19T05:32:24.192Z,6.50
2023-04-19T05:34:50.770Z,5.25
2023-04-19T05:37:17.407Z,5.40
2023-04-19T05:39:44.570Z,6.28
2023-04-19T05:42:11.296Z,6.50
2023-04-19T05:44:37.712Z,6.03
2023-04-19T05:47:04.166Z,5.40
2023-04-19T05:49:32.962Z,5.10
2023-04-19T05:51:59.336Z,5.18
2023-04-19T05:54:26.454Z,5.07
2023-04-19T05:56:53.171Z,5.13
2023-04-19T05:59:19.546Z,5.25
2023-04-19T06:01:46.163Z,5.30
2023-04-19T06:04:12.968Z,5.32
2023-04-19T06:06:40.376Z,5.38
2023-04-19T06:09:07.357Z,4.65
2023-04-19T06:11:42.998Z,4.43
2023-04-19T06:14:16.752Z,4.55
2023-04-19T06:16:43.374Z,4.85
2023-04-19T06:19:09.753Z,4.45
2023-04-19T06:21:36.114Z,5.25
2023-04-19T06:24:02.635Z,4.65
2023-04-19T06:26:29.103Z,4.78
2023-04-19T06:28:55.754Z,4.22
2023-04-19T06:31:22.192Z,4.88
2023-04-19T06:33:48.553Z,4.70
2023-04-19T06:36:14.994Z,4.65
2023-04-19T06:38:46.991Z,4.03
2023-04-19T06:41:13.386Z,4.70
2023-04-19T06:43:40.856Z,4.03
2023-04-19T06:46:08.402Z,4.55
2023-04-19T06:48:36.171Z,3.92
2023-04-19T06:51:02.822Z,3.88
2023-04-19T06:53:29.465Z,4.85
2023-04-19T06:56:03.587Z,4.13
2023-04-19T06:58:33.277Z,4.15
2023-04-19T07:01:02.004Z,4.40
2023-04-19T07:03:28.556Z,3.70
2023-04-19T07:05:57.252Z,4.20
2023-04-19T07:11:02.048Z,3.35
2023-04-19T07:13:28.480Z,4.13
2023-04-19T07:15:55.007Z,3.90
2023-04-19T07:18:21.864Z,3.80
2023-04-19T07:20:49.385Z,4.10
2023-04-19T07:23:15.981Z,3.85
2023-04-19T07:25:42.302Z,3.15
2023-04-19T07:28:08.729Z,3.92
2023-04-19T07:30:35.970Z,4.00
2023-04-19T07:33:04.528Z,3.80
2023-04-19T07:37:57.692Z,3.50
2023-04-19T07:40:24.065Z,3.05
2023-04-19T07:42:51.457Z,3.15
2023-04-19T07:45:17.854Z,3.42
2023-04-19T07:47:44.682Z,2.88
2023-04-19T07:50:12.344Z,3.45
2023-04-19T07:52:39.016Z,3.42
2023-04-19T07:55:06.121Z,3.38
2023-04-19T07:57:32.725Z,3.10
2023-04-19T07:59:59.304Z,2.63
2023-04-19T08:02:27.722Z,2.45
2023-04-19T08:07:23.131Z,2.60
2023-04-19T08:09:49.843Z,2.72
2023-04-19T08:12:30.339Z,3.00
2023-04-19T08:15:06.722Z,2.90
2023-04-19T08:17:44.147Z,2.85
2023-04-19T08:20:12.272Z,3.47
2023-04-19T08:22:39.748Z,2.65
2023-04-19T08:25:08.041Z,2.97
2023-04-19T08:27:36.604Z,2.35
2023-04-19T08:32:31.992Z,2.50
2023-04-19T08:34:58.860Z,2.80
2023-04-19T08:37:25.861Z,3.05
2023-04-19T08:39:52.581Z,2.80
2023-04-19T08:45:06.359Z,2.70
2023-04-19T08:47:52.000Z,2.45
2023-04-19T08:50:32.440Z,2.97
2023-04-19T08:53:20.309Z,3.00
2023-04-19T08:58:28.909Z,3.20
2023-04-19T09:01:00.176Z,3.20
2023-04-19T09:03:27.003Z,3.25
2023-04-19T09:05:54.533Z,3.13
2023-04-19T09:08:31.581Z,3.33
2023-04-19T09:11:01.355Z,2.85
2023-04-19T09:13:29.463Z,3.40
2023-04-19T09:16:02.150Z,2.95
2023-04-19T09:18:31.430Z,3.30
2023-04-19T09:21:00.954Z,2.97
2023-04-19T09:23:31.028Z,3.05
2023-04-19T09:26:22.245Z,3.40
2023-04-19T09:29:07.283Z,2.92
2023-04-19T09:31:50.950Z,2.80
2023-04-19T09:34:19.451Z,3.53
2023-04-19T09:36:46.915Z,3.30
2023-04-19T09:39:15.080Z,2.78
2023-04-19T09:41:54.843Z,3.33
2023-04-19T09:44:56.110Z,2.60
2023-04-19T09:47:47.073Z,3.13
2023-04-19T09:52:44.985Z,3.25
2023-04-19T09:57:56.201Z,2.63
2023-04-19T10:00:23.395Z,2.70
2023-04-19T10:02:57.701Z,2.78
2023-04-19T10:05:26.418Z,3.55
2023-04-19T10:10:40.432Z,2.88
2023-04-19T10:13:19.062Z,2.88
2023-04-19T10:15:52.498Z,2.97
2023-04-19T10:18:20.463Z,2.70
2023-04-19T10:21:01.143Z,2.97
2023-04-19T10:23:29.338Z,2.90
2023-04-19T10:26:02.373Z,2.95
2023-04-19T10:28:30.132Z,3.53
2023-04-19T10:31:02.234Z,2.95
2023-04-19T10:33:33.293Z,3.13
2023-04-19T10:36:00.710Z,2.88
2023-04-19T10:38:36.507Z,2.88
2023-04-19T10:41:04.226Z,2.70
2023-04-19T10:43:34.033Z,3.40
2023-04-19T10:46:08.662Z,3.38
2023-04-19T10:48:38.840Z,3.50
2023-04-19T10:51:07.433Z,3.28
2023-04-19T10:56:13.743Z,3.15
2023-04-19T10:59:02.673Z,4.05
2023-04-19T11:01:40.703Z,4.00
2023-04-19T11:04:08.830Z,3.72
2023-04-19T11:06:39.481Z,3.70
2023-04-19T11:09:10.339Z,3.90
2023-04-19T11:11:37.215Z,3.70
2023-04-19T11:14:04.928Z,3.70
2023-04-19T11:16:45.040Z,4.20
2023-04-19T11:19:19.992Z,3.65
2023-04-19T11:21:47.804Z,4.07
2023-04-19T11:24:18.646Z,4.43
2023-04-19T11:26:46.312Z,3.92
2023-04-19T11:29:12.763Z,4.18
2023-04-19T11:31:39.257Z,4.90
2023-04-19T11:34:06.082Z,4.28
2023-04-19T11:36:32.513Z,4.38
2023-04-19T11:38:59.118Z,4.43
2023-04-19T11:41:25.467Z,4.05
2023-04-19T11:43:52.165Z,3.90
2023-04-19T11:46:18.843Z,4.50
2023-04-19T11:48:53.482Z,4.25
2023-04-19T11:51:20.543Z,4.72
2023-04-19T11:53:47.262Z,4.82
2023-04-19T11:56:15.585Z,4.40
2023-04-19T11:58:48.559Z,4.57
2023-04-19T12:01:19.725Z,4.63
2023-04-19T12:03:49.444Z,4.35
2023-04-19T12:06:24.399Z,4.47
2023-04-19T12:08:52.405Z,4.20
2023-04-19T12:11:21.660Z,3.88
2023-04-19T12:13:48.880Z,4.70
2023-04-19T12:16:15.362Z,4.35
2023-04-19T12:18:53.373Z,4.30
2023-04-19T12:21:27.577Z,4.15
2023-04-19T12:23:56.272Z,4.22
2023-04-19T12:26:23.210Z,4.50
2023-04-19T12:28:49.610Z,4.53
2023-04-19T12:31:16.484Z,3.55
2023-04-19T12:33:43.044Z,3.90
2023-04-19T12:36:09.591Z,3.67
2023-04-19T12:38:37.680Z,3.70
2023-04-19T12:41:04.269Z,4.00
2023-04-19T12:43:31.912Z,3.55
2023-04-19T12:45:58.995Z,3.80
2023-04-19T12:48:26.046Z,3.97
2023-04-19T12:50:53.290Z,3.75
2023-04-19T12:53:20.453Z,3.60
2023-04-19T12:55:47.609Z,3.22
2023-04-19T12:58:14.917Z,3.40
2023-04-19T13:00:41.535Z,3.67
2023-04-19T13:03:08.055Z,3.30
2023-04-19T13:05:34.486Z,3.63
2023-04-19T13:08:01.201Z,3.45
2023-04-19T13:10:28.043Z,3.78
2023-04-19T13:12:54.533Z,3.88
2023-04-19T13:15:20.908Z,3.70
2023-04-19T13:17:47.555Z,3.25
2023-04-19T13:20:14.159Z,3.42
2023-04-19T13:22:40.586Z,3.03
2023-04-19T13:25:07.290Z,3.55
2023-04-19T13:27:33.668Z,3.20
2023-04-19T13:30:01.079Z,2.97
2023-04-19T13:32:27.986Z,3.05
2023-04-19T13:34:54.385Z,3.08
2023-04-19T13:37:22.344Z,3.05
2023-04-19T13:39:48.736Z,3.28
2023-04-19T13:42:15.766Z,2.70
2023-04-19T13:44:42.208Z,3.45
2023-04-19T13:47:09.750Z,3.08
2023-04-19T13:49:36.133Z,3.22
2023-04-19T13:52:02.520Z,2.88
2023-04-19T13:54:29.135Z,3.08
2023-04-19T13:56:57.796Z,3.17
2023-04-19T13:59:26.501Z,2.72
2023-04-19T14:01:55.792Z,3.40
2023-04-19T14:04:22.670Z,3.15
2023-04-19T14:06:49.593Z,3.38
2023-04-19T14:09:16.579Z,3.70
2023-04-19T14:11:43.657Z,3.45
2023-04-19T14:14:12.306Z,3.13
2023-04-19T14:19:05.195Z,3.20
2023-04-19T14:21:32.166Z,3.15
2023-04-19T14:23:59.381Z,3.03
2023-04-19T14:26:27.521Z,2.80
2023-04-19T14:28:54.369Z,2.83
2023-04-19T14:31:22.652Z,3.38
2023-04-19T14:33:49.027Z,3.22
2023-04-19T14:36:15.890Z,2.53
2023-04-19T14:38:42.309Z,2.97
2023-04-19T14:41:08.640Z,2.70
2023-04-19T14:43:35.030Z,3.15
2023-04-19T14:46:01.563Z,2.65
2023-04-19T14:48:28.027Z,2.50
2023-04-19T14:50:54.634Z,3.00
2023-04-19T14:53:21.026Z,2.70
2023-04-19T14:55:47.687Z,2.80
2023-04-19T14:58:14.370Z,2.47
2023-04-19T15:00:40.956Z,2.50
2023-04-19T15:03:08.815Z,3.00
2023-04-19T15:05:36.616Z,2.20
2023-04-19T15:08:03.367Z,2.42
2023-04-19T15:10:29.846Z,2.47
2023-04-19T15:12:56.778Z,2.13
2023-04-19T15:15:23.255Z,2.10
2023-04-19T15:17:49.637Z,2.30
2023-04-19T15:20:16.135Z,2.15
2023-04-19T15:22:42.512Z,2.20
2023-04-19T15:25:09.514Z,2.72
2023-04-19T15:27:35.905Z,2.10
2023-04-19T15:30:02.493Z,2.45
2023-04-19T15:32:30.924Z,2.30
2023-04-19T15:34:57.524Z,2.35
2023-04-19T15:37:23.943Z,1.90
2023-04-19T15:39:50.343Z,2.40
2023-04-19T15:42:16.885Z,2.63
2023-04-19T15:44:44.286Z,2.53
2023-04-19T15:47:10.809Z,1.95
2023-04-19T15:49:39.873Z,2.53
2023-04-19T15:52:06.999Z,2.30
2023-04-19T15:54:33.368Z,2.40
2023-04-19T15:57:01.917Z,2.70
2023-04-19T16:01:55.001Z,2.25
2023-04-19T16:04:21.942Z,2.50
2023-04-19T16:06:48.635Z,2.17
2023-04-19T16:09:15.598Z,2.72
2023-04-19T16:11:42.398Z,2.47
2023-04-19T16:14:08.755Z,2.65
2023-04-19T16:16:35.400Z,2.50
2023-04-19T16:19:01.857Z,2.50
2023-04-19T16:21:28.839Z,2.40
2023-04-19T16:23:56.298Z,2.47
2023-04-19T16:26:25.334Z,3.13
2023-04-19T16:28:51.903Z,2.90
2023-04-19T16:31:20.557Z,2.78
2023-04-19T16:33:47.013Z,2.55
2023-04-19T16:36:13.455Z,2.67
2023-04-19T16:38:40.068Z,2.65
2023-04-19T16:41:08.001Z,2.80
2023-04-19T16:43:35.016Z,2.45
2023-04-19T16:46:01.665Z,2.78
2023-04-19T16:48:28.326Z,2.70
2023-04-19T16:50:54.782Z,2.53
2023-04-19T16:53:21.434Z,2.83
2023-04-19T16:55:47.913Z,2.75
2023-04-19T16:58:14.605Z,2.78
2023-04-19T17:00:41.067Z,2.95
2023-04-19T17:03:09.359Z,2.92
2023-04-19T17:05:36.108Z,3.10
2023-04-19T17:08:02.650Z,3.30
2023-04-19T17:10:29.072Z,3.20
2023-04-19T17:12:58.185Z,2.85
2023-04-19T17:15:24.551Z,3.20
2023-04-19T17:17:51.040Z,3.78
2023-04-19T17:20:17.511Z,3.10
2023-04-19T17:22:43.888Z,3.45
2023-04-19T17:25:10.321Z,3.65
2023-04-19T17:27:36.905Z,3.20
2023-04-19T17:30:03.875Z,3.60
2023-04-19T17:32:30.300Z,3.28
2023-04-19T17:34:56.756Z,3.20
2023-04-19T17:37:23.340Z,3.45
2023-04-19T17:39:49.837Z,3.35
2023-04-19T17:42:16.644Z,4.00
2023-04-19T17:44:43.031Z,3.65
2023-04-19T17:47:09.427Z,4.00
2023-04-19T17:49:36.507Z,3.92
2023-04-19T17:52:03.229Z,4.03
2023-04-19T17:54:32.195Z,4.03
2023-04-19T17:56:59.976Z,4.70
2023-04-19T17:59:26.641Z,3.72
2023-04-19T18:01:58.165Z,4.03
2023-04-19T18:04:25.038Z,3.75
2023-04-19T18:06:53.038Z,3.88
2023-04-19T18:09:20.315Z,3.95
2023-04-19T18:11:47.847Z,4.22
2023-04-19T18:14:15.539Z,4.03
2023-04-19T18:16:42.295Z,4.27
2023-04-19T18:21:52.104Z,3.97
2023-04-19T18:24:25.707Z,3.67
2023-04-19T18:26:53.970Z,3.50
2023-04-19T18:29:22.948Z,3.40
2023-04-19T18:31:52.424Z,3.78
2023-04-19T18:34:19.781Z,4.03
2023-04-19T18:36:46.295Z,3.78
2023-04-19T18:39:14.657Z,3.42
2023-04-19T18:41:45.385Z,3.75
2023-04-19T18:46:41.063Z,3.72
2023-04-19T18:49:08.398Z,3.97
2023-04-19T18:51:35.242Z,4.05
2023-04-19T18:54:04.999Z,4.25
2023-04-19T18:57:10.957Z,4.30
2023-04-19T18:59:19.886Z,4.03
2023-04-19T19:01:46.827Z,4.40
2023-04-19T19:07:14.370Z,4.22
2023-04-19T19:09:55.641Z,4.32
2023-04-19T19:12:22.860Z,3.60
2023-04-19T19:14:53.003Z,4.22
2023-04-19T19:17:19.689Z,3.88
2023-04-19T19:19:46.164Z,4.47
2023-04-19T19:22:27.908Z,4.47
2023-04-19T19:25:02.275Z,4.32
2023-04-19T19:27:30.847Z,4.47
2023-04-19T19:32:25.329Z,3.83
2023-04-19T19:34:56.404Z,3.83
2023-04-19T19:37:27.828Z,4.25
2023-04-19T19:39:56.468Z,3.53
2023-04-19T19:42:24.119Z,4.07
2023-04-19T19:44:55.233Z,4.25
2023-04-19T19:47:25.043Z,3.58
2023-04-19T19:52:21.874Z,4.60
2023-04-19T19:54:48.488Z,4.18
2023-04-19T19:59:51.587Z,3.80
2023-04-19T20:02:25.194Z,4.10
2023-04-19T20:04:51.996Z,4.00
2023-04-19T20:07:37.274Z,4.18
2023-04-19T20:10:12.934Z,3.80
2023-04-19T20:12:43.913Z,4.18
2023-04-19T20:15:11.882Z,3.72
2023-04-19T20:17:44.896Z,3.78
2023-04-19T20:20:11.971Z,3.90
2023-04-19T20:22:39.615Z,3.67
2023-04-19T20:25:06.760Z,3.70
2023-04-19T20:27:34.899Z,4.38
2023-04-19T20:30:08.116Z,3.75
2023-04-19T20:32:40.418Z,4.05
2023-04-19T20:35:11.732Z,4.43
2023-04-19T20:37:42.774Z,4.30
2023-04-19T20:40:18.032Z,3.83
2023-04-19T20:42:44.938Z,3.50
2023-04-19T20:45:12.128Z,4.22
2023-04-19T20:47:43.008Z,3.60
2023-04-19T20:50:10.090Z,3.63
2023-04-19T20:52:36.565Z,4.03
2023-04-19T20:55:03.221Z,3.90
2023-04-19T20:57:36.405Z,3.90
2023-04-19T21:00:04.309Z,4.15
2023-04-19T21:02:31.237Z,4.93
2023-04-19T21:04:58.235Z,4.13
2023-04-19T21:07:24.923Z,3.75
2023-04-19T21:09:53.131Z,4.30
2023-04-19T21:12:21.879Z,3.80
2023-04-19T21:14:49.984Z,4.70
2023-04-19T21:17:16.410Z,4.22
2023-04-19T21:19:42.794Z,4.22
2023-04-19T21:22:09.496Z,4.20
2023-04-19T21:24:36.673Z,4.18
2023-04-19T21:27:07.640Z,4.75
2023-04-19T21:29:34.073Z,4.70
2023-04-19T21:32:00.776Z,3.78
2023-04-19T21:34:27.646Z,4.50
2023-04-19T21:36:54.435Z,4.35
2023-04-19T21:39:21.949Z,4.40
2023-04-19T21:41:48.662Z,4.38
2023-04-19T21:44:17.443Z,4.20
2023-04-19T21:46:44.235Z,4.43
2023-04-19T21:49:10.617Z,4.47
2023-04-19T21:51:37.257Z,3.85
2023-04-19T21:54:04.299Z,4.55
2023-04-19T21:56:33.582Z,4.10
2023-04-19T21:59:09.593Z,3.58
2023-04-19T22:01:36.070Z,3.78
2023-04-19T22:04:07.073Z,4.10
2023-04-19T22:06:40.926Z,3.75
2023-04-19T22:09:07.664Z,3.30
2023-04-19T22:11:37.180Z,3.72
2023-04-19T22:14:04.097Z,4.40
2023-04-19T22:16:32.496Z,3.75
2023-04-19T22:19:00.356Z,4.10
2023-04-19T22:21:29.847Z,3.97
2023-04-19T22:23:57.918Z,4.03
2023-04-19T22:26:26.031Z,4.22
2023-04-19T22:28:53.709Z,4.40
2023-04-19T22:31:20.077Z,3.87
2023-04-19T22:33:48.072Z,4.20
2023-04-19T22:36:14.530Z,4.27
2023-04-19T22:38:41.089Z,3.85
2023-04-19T22:41:08.270Z,4.05
2023-04-19T22:43:34.692Z,4.38
2023-04-19T22:46:01.505Z,3.97
2023-04-19T22:48:30.082Z,4.40
2023-04-19T22:53:24.259Z,4.15
2023-04-19T22:55:51.735Z,3.47
2023-04-19T22:58:19.683Z,3.90
2023-04-19T23:00:51.184Z,3.72
2023-04-19T23:03:17.572Z,4.25
2023-04-19T23:05:44.957Z,4.80
2023-04-19T23:08:13.035Z,4.23
2023-04-19T23:10:42.296Z,4.20
2023-04-19T23:13:10.857Z,4.15
2023-04-19T23:18:05.732Z,3.97
2023-04-19T23:20:32.198Z,3.83
2023-04-19T23:23:00.514Z,4.13
2023-04-19T23:25:27.237Z,3.70
2023-04-19T23:30:39.482Z,4.13
2023-04-19T23:33:09.056Z,4.25
2023-04-19T23:35:35.427Z,3.75
2023-04-19T23:38:02.210Z,4.13
2023-04-19T23:40:28.565Z,4.15
2023-04-19T23:42:55.183Z,4.05
2023-04-19T23:45:21.755Z,3.75
2023-04-19T23:47:59.309Z,4.70
2023-04-19T23:50:28.196Z,4.17
2023-04-19T23:52:58.216Z,5.20
2023-04-19T23:55:24.944Z,4.47
2023-04-19T23:57:51.434Z,4.63
